createdAt,value
2018-04-25T00:00:07.053Z,3.43
2018-04-25T00:03:10.397Z,3.70
2018-04-25T00:06:14.479Z,3.30
2018-04-25T00:09:17.799Z,3.10
2018-04-25T00:12:21.898Z,3.83
2018-04-25T00:15:26.714Z,2.80
2018-04-25T00:18:30.280Z,3.70
2018-04-25T00:21:33.586Z,3.50
2018-04-25T00:24:36.906Z,3.40
2018-04-25T00:27:40.236Z,3.13
2018-04-25T00:30:43.607Z,3.30
2018-04-25T00:33:46.929Z,3.40
2018-04-25T00:36:50.228Z,3.07
2018-04-25T00:39:53.559Z,3.83
2018-04-25T00:42:56.902Z,3.63
2018-04-25T00:46:00.359Z,3.33
2018-04-25T00:49:03.704Z,3.20
2018-04-25T00:52:07.100Z,3.90
2018-04-25T00:55:10.411Z,3.73
2018-04-25T00:58:14.621Z,3.63
2018-04-25T01:01:19.000Z,4.53
2018-04-25T01:04:22.455Z,3.33
2018-04-25T01:07:25.754Z,3.30
2018-04-25T01:10:29.089Z,4.03
2018-04-25T01:13:33.257Z,3.17
2018-04-25T01:16:36.587Z,3.60
2018-04-25T01:19:40.659Z,3.60
2018-04-25T01:22:54.793Z,3.47
2018-04-25T01:26:06.518Z,3.93
2018-04-25T01:29:09.918Z,3.83
2018-04-25T01:32:13.216Z,3.03
2018-04-25T01:35:16.606Z,2.40
2018-04-25T01:38:19.910Z,2.70
2018-04-25T01:41:23.318Z,2.90
2018-04-25T01:44:28.236Z,3.30
2018-04-25T01:47:36.022Z,2.70
2018-04-25T01:50:39.344Z,1.97
2018-04-25T01:54:00.650Z,2.57
2018-04-25T01:57:21.885Z,2.27
2018-04-25T02:00:43.299Z,2.70
2018-04-25T02:03:56.913Z,3.37
2018-04-25T02:07:00.354Z,2.30
2018-04-25T02:10:03.670Z,2.70
2018-04-25T02:13:07.003Z,2.60
2018-04-25T02:16:10.306Z,2.87
2018-04-25T02:19:13.639Z,2.83
2018-04-25T02:22:17.041Z,2.90
2018-04-25T02:25:20.436Z,2.50
2018-04-25T02:28:23.732Z,2.30
2018-04-25T02:31:27.142Z,2.67
2018-04-25T02:34:30.539Z,2.17
2018-04-25T02:37:33.870Z,2.83
2018-04-25T02:40:37.180Z,1.80
2018-04-25T02:43:41.362Z,2.10
2018-04-25T02:46:44.745Z,1.77
2018-04-25T02:49:48.170Z,2.10
2018-04-25T02:52:51.557Z,2.00
2018-04-25T02:55:54.882Z,2.23
2018-04-25T02:58:58.326Z,2.03
2018-04-25T03:02:03.100Z,2.37
2018-04-25T03:05:06.489Z,1.83
2018-04-25T03:08:09.880Z,1.80
2018-04-25T03:11:13.188Z,2.23
2018-04-25T03:14:16.685Z,1.73
2018-04-25T03:17:20.082Z,2.17
2018-04-25T03:20:23.409Z,2.40
2018-04-25T03:23:26.795Z,3.13
2018-04-25T03:26:30.178Z,3.73
2018-04-25T03:29:33.472Z,4.07
2018-04-25T03:32:36.784Z,4.00
2018-04-25T03:35:40.080Z,6.10
2018-04-25T03:38:43.468Z,5.50
2018-04-25T03:41:46.878Z,6.67
2018-04-25T03:44:50.210Z,7.60
2018-04-25T03:47:54.285Z,8.23
2018-04-25T03:50:57.685Z,8.23
2018-04-25T03:54:00.986Z,8.93
2018-04-25T03:57:04.313Z,8.33
2018-04-25T04:00:07.612Z,9.40
2018-04-25T04:03:10.933Z,8.87
2018-04-25T04:06:14.993Z,8.90
2018-04-25T04:09:18.308Z,8.50
2018-04-25T04:12:21.692Z,8.83
2018-04-25T04:15:25.009Z,9.70
2018-04-25T04:18:29.761Z,10.00
2018-04-25T04:21:33.942Z,10.80
2018-04-25T04:24:37.249Z,11.27
2018-04-25T04:27:40.585Z,10.97
2018-04-25T04:30:44.761Z,11.00
2018-04-25T04:33:48.149Z,10.10
2018-04-25T04:36:51.570Z,9.40
2018-04-25T04:39:54.953Z,9.33
2018-04-25T04:42:58.257Z,8.70
2018-04-25T04:46:02.070Z,7.07
2018-04-25T04:49:05.378Z,6.93
2018-04-25T04:52:08.753Z,7.20
2018-04-25T04:55:12.066Z,7.87
2018-04-25T04:58:15.458Z,6.87
2018-04-25T05:01:18.975Z,7.73
2018-04-25T05:04:22.362Z,7.03
2018-04-25T05:07:25.765Z,6.80
2018-04-25T05:10:29.086Z,6.60
2018-04-25T05:13:32.390Z,6.93
2018-04-25T05:16:35.861Z,9.13
2018-04-25T05:19:39.157Z,8.67
2018-04-25T05:22:42.477Z,7.37
2018-04-25T05:25:45.858Z,7.40
2018-04-25T05:28:49.250Z,7.30
2018-04-25T05:31:52.553Z,6.57
2018-04-25T05:34:55.877Z,6.40
2018-04-25T05:37:59.271Z,8.13
2018-04-25T05:41:02.611Z,7.57
2018-04-25T05:44:05.918Z,6.73
2018-04-25T05:47:09.246Z,8.37
2018-04-25T05:50:12.546Z,8.20
2018-04-25T05:53:16.007Z,7.90
2018-04-25T05:56:19.357Z,8.23
2018-04-25T05:59:22.774Z,8.27
2018-04-25T06:02:26.073Z,7.63
2018-04-25T06:05:29.434Z,6.40
2018-04-25T06:08:32.854Z,6.10
2018-04-25T06:11:36.940Z,5.73
2018-04-25T06:14:40.245Z,5.60
2018-04-25T06:17:43.574Z,5.37
2018-04-25T06:20:46.881Z,5.20
2018-04-25T06:23:50.208Z,5.20
2018-04-25T06:26:53.514Z,5.60
2018-04-25T06:29:56.866Z,5.70
2018-04-25T06:33:00.246Z,5.30
2018-04-25T06:36:03.642Z,4.57
2018-04-25T06:39:07.037Z,3.90
2018-04-25T06:42:10.348Z,3.77
2018-04-25T06:45:13.658Z,4.00
2018-04-25T06:48:16.995Z,4.70
2018-04-25T06:51:20.296Z,5.20
2018-04-25T06:54:23.616Z,4.87
2018-04-25T06:57:26.942Z,4.50
2018-04-25T07:00:30.283Z,3.70
2018-04-25T07:03:33.628Z,3.70
2018-04-25T07:06:36.947Z,3.33
2018-04-25T07:09:40.334Z,3.37
2018-04-25T07:12:43.668Z,3.20
2018-04-25T07:15:47.738Z,2.97
2018-04-25T07:18:51.066Z,3.20
2018-04-25T07:21:54.439Z,2.50
2018-04-25T07:24:57.796Z,2.20
2018-04-25T07:28:01.094Z,2.37
2018-04-25T07:31:04.433Z,2.30
2018-04-25T07:34:07.935Z,2.40
2018-04-25T07:37:11.329Z,2.20
2018-04-25T07:40:15.362Z,2.77
2018-04-25T07:43:18.693Z,2.97
2018-04-25T07:46:22.890Z,2.70
2018-04-25T07:49:26.337Z,2.80
2018-04-25T07:52:29.668Z,3.00
2018-04-25T07:55:32.996Z,3.10
2018-04-25T07:58:37.094Z,3.00
2018-04-25T08:01:40.422Z,3.53
2018-04-25T08:04:44.556Z,2.57
2018-04-25T08:07:47.901Z,2.30
2018-04-25T08:10:51.197Z,1.50
2018-04-25T08:14:12.349Z,1.80
2018-04-25T08:17:34.201Z,1.70
2018-04-25T08:24:21.910Z,1.20
2018-04-25T08:27:25.318Z,1.87
2018-04-25T08:30:28.625Z,1.23
2018-04-25T08:33:31.960Z,1.57
2018-04-25T08:36:35.263Z,0.90
2018-04-25T08:39:38.693Z,0.63
2018-04-25T08:42:41.993Z,0.73
2018-04-25T08:45:45.322Z,0.70
2018-04-25T08:48:48.706Z,0.60
2018-04-25T08:51:52.162Z,0.60
2018-04-25T08:54:55.489Z,0.53
2018-04-25T08:57:58.913Z,0.70
2018-04-25T09:01:02.301Z,0.50
2018-04-25T09:04:05.648Z,0.97
2018-04-25T09:07:08.991Z,0.30
2018-04-25T09:10:12.316Z,0.43
2018-04-25T09:13:15.780Z,0.60
2018-04-25T09:16:19.204Z,0.67
2018-04-25T09:19:22.650Z,0.67
2018-04-25T09:22:25.976Z,0.53
2018-04-25T09:25:29.455Z,0.50
2018-04-25T09:28:32.855Z,1.90
2018-04-25T09:31:36.178Z,0.60
2018-04-25T09:34:39.519Z,0.40
2018-04-25T09:37:42.840Z,0.60
2018-04-25T09:40:46.996Z,0.40
2018-04-25T09:43:50.318Z,0.60
2018-04-25T09:46:53.730Z,0.40
2018-04-25T09:49:57.053Z,0.50
2018-04-25T09:53:01.242Z,0.50
2018-04-25T09:56:04.679Z,0.47
2018-04-25T09:59:08.129Z,0.50
2018-04-25T10:05:53.790Z,0.60
2018-04-25T10:08:57.258Z,0.50
2018-04-25T10:12:02.282Z,0.43
2018-04-25T10:15:05.600Z,0.60
2018-04-25T10:18:08.981Z,0.50
2018-04-25T10:21:12.314Z,0.40
2018-04-25T10:24:16.445Z,0.40
2018-04-25T10:27:19.762Z,0.70
2018-04-25T10:30:23.190Z,0.57
2018-04-25T10:33:26.504Z,0.53
2018-04-25T10:36:29.924Z,0.70
2018-04-25T10:39:34.164Z,0.80
2018-04-25T10:42:37.600Z,0.60
2018-04-25T10:45:41.068Z,0.77
2018-04-25T10:48:44.622Z,0.90
2018-04-25T10:51:47.954Z,0.93
2018-04-25T10:54:52.062Z,0.80
2018-04-25T10:57:56.242Z,0.87
2018-04-25T11:00:59.578Z,0.67
2018-04-25T11:04:03.669Z,0.70
2018-04-25T11:07:07.069Z,0.80
2018-04-25T11:10:10.380Z,0.67
2018-04-25T11:13:14.006Z,0.77
2018-04-25T11:16:18.323Z,0.70
2018-04-25T11:19:22.426Z,0.70
2018-04-25T11:22:25.741Z,0.87
2018-04-25T11:25:29.905Z,0.70
2018-04-25T11:28:33.318Z,0.80
2018-04-25T11:31:36.716Z,0.83
2018-04-25T11:34:40.935Z,0.80
2018-04-25T11:37:44.276Z,1.23
2018-04-25T11:40:48.454Z,1.60
2018-04-25T11:43:51.788Z,0.90
2018-04-25T11:46:55.856Z,1.00
2018-04-25T11:49:59.196Z,1.00
2018-04-25T11:53:02.565Z,1.37
2018-04-25T11:56:06.021Z,1.00
2018-04-25T11:59:09.331Z,0.83
2018-04-25T12:02:12.667Z,1.23
2018-04-25T12:05:16.049Z,0.90
2018-04-25T12:08:19.380Z,1.00
2018-04-25T12:11:22.718Z,0.67
2018-04-25T12:14:26.189Z,1.40
2018-04-25T12:17:29.554Z,2.10
2018-04-25T12:20:32.906Z,1.60
2018-04-25T12:23:37.082Z,2.03
2018-04-25T12:26:40.497Z,2.20
2018-04-25T12:29:43.840Z,2.00
2018-04-25T12:32:48.508Z,2.47
2018-04-25T12:35:51.931Z,2.30
2018-04-25T12:38:55.302Z,2.70
2018-04-25T12:41:58.616Z,3.03
2018-04-25T12:45:03.482Z,1.73
2018-04-25T12:48:07.584Z,2.47
2018-04-25T12:51:10.948Z,1.70
2018-04-25T12:54:15.369Z,1.93
2018-04-25T12:57:18.769Z,2.00
2018-04-25T13:00:22.090Z,1.70
2018-04-25T13:03:25.534Z,2.00
2018-04-25T13:06:28.853Z,2.10
2018-04-25T13:09:32.269Z,1.80
2018-04-25T13:12:35.602Z,1.50
2018-04-25T13:15:38.930Z,1.50
2018-04-25T13:18:42.233Z,1.90
2018-04-25T13:21:45.566Z,1.60
2018-04-25T13:24:48.882Z,1.67
2018-04-25T13:27:52.239Z,1.57
2018-04-25T13:30:55.720Z,1.57
2018-04-25T13:33:59.147Z,1.20
2018-04-25T13:37:02.469Z,1.63
2018-04-25T13:40:05.812Z,1.20
2018-04-25T13:43:10.629Z,1.20
2018-04-25T13:46:13.973Z,1.20
2018-04-25T13:49:17.320Z,1.10
2018-04-25T13:52:21.554Z,1.33
2018-04-25T13:55:26.386Z,1.60
2018-04-25T13:58:30.573Z,1.30
2018-04-25T14:01:33.907Z,1.30
2018-04-25T14:04:38.087Z,1.40
2018-04-25T14:07:41.482Z,1.40
2018-04-25T14:10:44.837Z,1.37
2018-04-25T14:13:48.154Z,1.37
2018-04-25T14:16:51.586Z,1.17
2018-04-25T14:19:54.981Z,1.10
2018-04-25T14:22:58.329Z,1.40
2018-04-25T14:26:01.685Z,1.37
2018-04-25T14:29:06.547Z,1.40
2018-04-25T14:32:10.628Z,1.30
2018-04-25T14:35:13.962Z,1.30
2018-04-25T14:38:18.029Z,1.30
2018-04-25T14:41:22.225Z,0.93
2018-04-25T14:44:25.574Z,1.50
2018-04-25T14:47:28.922Z,1.30
2018-04-25T14:50:32.254Z,1.23
2018-04-25T14:53:35.658Z,1.23
2018-04-25T14:56:39.075Z,1.70
2018-04-25T14:59:43.178Z,1.70
2018-04-25T15:02:46.935Z,1.90
2018-04-25T15:05:50.284Z,1.77
2018-04-25T15:08:53.665Z,1.30
2018-04-25T15:11:57.012Z,1.33
2018-04-25T15:15:01.163Z,1.27
2018-04-25T15:18:04.517Z,1.07
2018-04-25T15:21:07.814Z,1.60
2018-04-25T15:24:11.197Z,1.10
2018-04-25T15:27:14.584Z,1.33
2018-04-25T15:30:17.931Z,1.63
2018-04-25T15:33:22.107Z,1.87
2018-04-25T15:36:25.463Z,1.47
2018-04-25T15:39:28.770Z,1.23
2018-04-25T15:42:32.219Z,1.10
2018-04-25T15:45:35.527Z,1.40
2018-04-25T15:48:38.878Z,1.37
2018-04-25T15:51:42.261Z,1.17
2018-04-25T15:54:45.703Z,1.40
2018-04-25T15:57:49.014Z,2.53
2018-04-25T16:00:52.408Z,1.50
2018-04-25T16:03:55.796Z,1.50
2018-04-25T16:06:59.157Z,1.30
2018-04-25T16:10:02.469Z,1.53
2018-04-25T16:13:05.923Z,1.30
2018-04-25T16:16:10.895Z,1.37
2018-04-25T16:19:14.236Z,1.60
2018-04-25T16:22:17.647Z,2.03
2018-04-25T16:25:21.033Z,1.43
2018-04-25T16:28:24.330Z,1.63
2018-04-25T16:31:27.736Z,1.90
2018-04-25T16:34:31.029Z,1.70
2018-04-25T16:37:34.368Z,2.00
2018-04-25T16:40:38.462Z,1.73
2018-04-25T16:43:41.901Z,2.00
2018-04-25T16:46:45.306Z,1.60
2018-04-25T16:49:48.752Z,1.97
2018-04-25T16:52:52.161Z,2.90
2018-04-25T16:55:55.541Z,2.10
2018-04-25T16:58:58.958Z,1.77
2018-04-25T17:02:03.071Z,2.10
2018-04-25T17:05:06.472Z,1.80
2018-04-25T17:08:09.805Z,1.47
2018-04-25T17:11:13.970Z,2.13
2018-04-25T17:14:17.309Z,1.60
2018-04-25T17:17:20.702Z,1.37
2018-04-25T17:20:24.060Z,1.50
2018-04-25T17:23:27.493Z,1.70
2018-04-25T17:26:30.866Z,1.70
2018-04-25T17:29:34.167Z,1.63
2018-04-25T17:32:37.512Z,1.57
2018-04-25T17:35:41.582Z,1.40
2018-04-25T17:38:44.993Z,1.93
2018-04-25T17:41:48.401Z,1.37
2018-04-25T17:44:51.725Z,1.90
2018-04-25T17:47:56.663Z,1.60
2018-04-25T17:51:00.773Z,2.67
2018-04-25T17:54:05.862Z,2.40
2018-04-25T17:57:10.605Z,3.10
2018-04-25T18:00:15.422Z,1.93
2018-04-25T18:03:20.450Z,2.10
2018-04-25T18:06:25.099Z,2.30
2018-04-25T18:09:29.877Z,2.20
2018-04-25T18:12:35.167Z,2.87
2018-04-25T18:15:39.885Z,1.97
2018-04-25T18:18:43.192Z,2.60
2018-04-25T18:21:48.181Z,2.70
2018-04-25T18:24:52.976Z,3.40
2018-04-25T18:27:57.624Z,2.60
2018-04-25T18:31:02.078Z,2.60
2018-04-25T18:34:07.782Z,3.17
2018-04-25T18:37:12.721Z,2.87
2018-04-25T18:40:17.379Z,4.03
2018-04-25T18:43:21.853Z,3.13
2018-04-25T18:46:26.458Z,3.80
2018-04-25T18:49:30.826Z,3.30
2018-04-25T18:52:34.592Z,3.80
2018-04-25T18:55:39.330Z,3.73
2018-04-25T18:58:43.011Z,3.80
2018-04-25T19:01:46.530Z,3.57
2018-04-25T19:04:50.223Z,3.33
2018-04-25T19:07:53.703Z,3.20
2018-04-25T19:10:57.256Z,3.33
2018-04-25T19:14:00.762Z,3.23
2018-04-25T19:17:04.420Z,3.20
2018-04-25T19:20:08.020Z,3.00
2018-04-25T19:23:11.404Z,3.20
2018-04-25T19:26:14.971Z,2.63
2018-04-25T19:29:18.694Z,2.93
2018-04-25T19:32:22.284Z,3.27
2018-04-25T19:35:25.960Z,3.37
2018-04-25T19:38:29.391Z,3.97
2018-04-25T19:41:32.889Z,4.53
2018-04-25T19:44:36.429Z,4.50
2018-04-25T19:47:39.939Z,5.07
2018-04-25T19:50:43.660Z,5.80
2018-04-25T19:53:47.439Z,4.97
2018-04-25T19:56:51.006Z,5.80
2018-04-25T19:59:54.545Z,7.13
2018-04-25T20:02:58.216Z,7.60
2018-04-25T20:06:02.348Z,8.70
2018-04-25T20:09:05.924Z,10.13
2018-04-25T20:12:10.338Z,11.77
2018-04-25T20:15:13.964Z,12.63
2018-04-25T20:18:19.588Z,11.53
2018-04-25T20:21:24.195Z,11.13
2018-04-25T20:24:29.341Z,11.93
2018-04-25T20:27:34.084Z,12.13
2018-04-25T20:30:39.051Z,12.87
2018-04-25T20:33:44.850Z,12.73
2018-04-25T20:36:49.720Z,12.60
2018-04-25T20:39:54.559Z,10.93
2018-04-25T20:42:58.921Z,13.83
2018-04-25T20:46:03.699Z,14.40
2018-04-25T20:49:09.993Z,14.70
2018-04-25T20:52:15.073Z,15.93
2018-04-25T20:55:19.831Z,15.17
2018-04-25T20:58:24.420Z,14.97
2018-04-25T21:01:29.356Z,13.70
2018-04-25T21:04:33.972Z,14.53
2018-04-25T21:07:38.891Z,13.83
2018-04-25T21:10:44.403Z,14.23
2018-04-25T21:13:49.398Z,15.23
2018-04-25T21:16:55.072Z,15.90
2018-04-25T21:19:59.842Z,15.33
2018-04-25T21:23:04.332Z,14.60
2018-04-25T21:26:09.188Z,14.17
2018-04-25T21:29:13.493Z,12.80
2018-04-25T21:32:18.593Z,10.63
2018-04-25T21:35:24.158Z,9.77
2018-04-25T21:38:28.770Z,10.03
2018-04-25T21:41:34.180Z,8.33
2018-04-25T21:44:39.123Z,8.93
2018-04-25T21:47:44.030Z,9.33
2018-04-25T21:50:48.372Z,9.53
2018-04-25T21:53:53.242Z,9.07
2018-04-25T21:56:58.818Z,8.63
2018-04-25T22:00:03.138Z,10.27
2018-04-25T22:03:08.047Z,11.70
2018-04-25T22:06:13.616Z,10.00
2018-04-25T22:09:19.147Z,10.43
2018-04-25T22:12:23.797Z,11.93
2018-04-25T22:15:28.731Z,10.83
2018-04-25T22:18:34.199Z,10.43
2018-04-25T22:21:39.046Z,9.50
2018-04-25T22:24:43.734Z,9.97
2018-04-25T22:27:49.444Z,9.43
2018-04-25T22:30:54.047Z,9.37
2018-04-25T22:33:58.870Z,8.63
2018-04-25T22:37:03.738Z,8.67
2018-04-25T22:40:09.430Z,9.07
2018-04-25T22:43:15.237Z,8.30
2018-04-25T22:46:20.147Z,8.77
2018-04-25T22:49:23.446Z,8.60
2018-04-25T22:52:26.768Z,8.97
2018-04-25T22:55:30.088Z,7.73
2018-04-25T22:58:33.564Z,8.97
2018-04-25T23:01:36.886Z,8.20
2018-04-25T23:04:40.208Z,7.03
2018-04-25T23:07:43.584Z,7.33
2018-04-25T23:10:46.972Z,7.33
2018-04-25T23:13:50.272Z,8.40
2018-04-25T23:16:53.592Z,8.13
2018-04-25T23:19:56.918Z,7.83
2018-04-25T23:23:01.028Z,7.57
2018-04-25T23:26:05.094Z,6.90
2018-04-25T23:29:08.425Z,7.03
2018-04-25T23:32:11.805Z,6.43
2018-04-25T23:35:15.200Z,5.70
2018-04-25T23:38:18.593Z,4.53
2018-04-25T23:41:21.916Z,4.53
2018-04-25T23:44:25.298Z,4.97
2018-04-25T23:47:28.704Z,4.07
2018-04-25T23:50:32.000Z,4.47
2018-04-25T23:53:35.346Z,4.67
2018-04-25T23:56:39.422Z,5.07
2018-04-25T23:59:42.760Z,5.57
